• Join FlightAware (Why Join?)
  • Login
  • US Flag 
01:27AM EDT


 

Airport Tracker/Info


-or-


 

Live Flight TrackerFlight Track Log ✈ GJS3618 ✈ 30-Jun-2013 ✈ KORD - KBZN

Flight Track Log - Related Links

Times and Time Zones

All times are in EDT time to prevent confusion due to time zone crossing. See the GJS3618 flight status page for this flight to view local times or setup timezone preferences in your user account.

Time Position Orientation Groundspeed Altitude Reporting Facility
EDT Latitude Longitude Course Direction KTS MPH feet Rate Location/Type
11:23PM 42.0000 -87.9500 334° Northwest 169 194 2,300  Level Chicago TRACON
11:24PM 42.0500 -87.9833 334° Northwest 210 242 4,200 2,160 Climbing Chicago TRACON
11:26PM 42.1183 -88.1864 294° West 297 342 9,500 2,040 Climbing Chicago Center
11:27PM 42.1022 -88.2986 259° West 306 352 11,400 1,800 Climbing Chicago Center
11:28PM 42.0847 -88.4200 259° West 321 369 13,200 1,860 Climbing Chicago Center
11:29PM 42.0739 -88.5514 264° West 347 399 15,300 2,100 Climbing Chicago Center
11:30PM 42.0703 -88.6831 268° West 354 407 17,500 1,980 Climbing Chicago Center
11:31PM 42.0700 -88.8144 270° West 355 409 19,400 1,860 Climbing Chicago Center
11:32PM 42.0717 -88.9461 271° West 356 410 21,400 1,800 Climbing Chicago Center
11:33PM 42.0742 -89.0781 272° West 353 406 23,100 1,320 Climbing Chicago Center
11:34PM 42.0764 -89.2433 271° West 373 429 24,200 1,080 Climbing Chicago Center
11:35PM 42.0789 -89.3928 271° West 392 451 25,400 1,140 Climbing Chicago Center
11:36PM 42.0800 -89.5433 271° West 400 460 26,600 1,200 Climbing Chicago Center
11:37PM 42.0847 -89.6972 272° West 408 470 27,900 1,200 Climbing Chicago Center
11:38PM 42.0906 -89.8503 273° West 408 470 29,100 1,140 Climbing Chicago Center
11:40PM 42.0961 -90.0044 273° West 409 471 30,300 1,140 Climbing Chicago Center
11:41PM 42.1022 -90.1567 273° West 410 472 31,400 840 Climbing Chicago Center
11:42PM 42.1100 -90.3081 274° West 409 471 32,100 540 Climbing Chicago Center
11:43PM 42.1378 -90.4606 284° West 428 493 32,600 480 Climbing Chicago Center
11:44PM 42.1781 -90.6139 290° West 434 499 33,100 480 Climbing Chicago Center
11:45PM 42.2203 -90.7661 291° West 438 504 33,600 420 Climbing Chicago Center
11:46PM 42.2628 -90.9219 290° West 445 512 34,000 180 Climbing Chicago Center
11:47PM 42.3050 -91.0833 290° West 457 526 34,000  Level Chicago Center
11:48PM 42.3481 -91.2461 290° West 462 532 34,000  Level Chicago Center
11:49PM 42.3997 -91.4450 289° West 470 541 34,000  Level Chicago Center
11:50PM 42.4444 -91.6119 290° West 471 542 34,000 360 Level Chicago Center
11:51PM 42.4875 -91.7767 290° West 465 535 34,800 780 Climbing Chicago Center
11:52PM 42.5292 -91.9408 289° West 460 529 35,600 540 Climbing Chicago Center
11:53PM 42.5708 -92.1014 289° West 454 522 36,000 180 Climbing Chicago Center
11:54PM 42.6111 -92.2622 289° West 453 521 36,000  Level Chicago Center
11:55PM 42.6533 -92.4267 289° West 461 531 36,000  Level Chicago Center
11:56PM 42.6942 -92.5903 289° West 461 531 36,000  Level Chicago Center
11:57PM 42.7350 -92.7556 289° West 463 533 36,000  Level Chicago Center
11:58PM 42.7761 -92.9219 289° West 468 539 36,000  Level Chicago Center
11:59PM 42.8181 -93.0858 289° West 462 532 36,000  Level Chicago Center
12:00AM 42.8553 -93.2500 287° West 460 529 36,000  Level Chicago Center
12:01AM 42.8956 -93.4156 288° West 462 532 36,000  Level Chicago Center
12:02AM 42.9350 -93.5792 288° West 460 529 36,000  Level Chicago Center
12:03AM 42.9800 -93.7781 287° West 460 529 36,000  Level Chicago Center
12:03AM 42.9914 -93.8114 295° West 462 532 36,000  Level Minneapolis Center
12:04AM 43.0353 -94.0119 287° West 464 534 36,000  Level Minneapolis Center
12:05AM 43.0842 -94.2089 289° West 461 531 36,000 120 Level Minneapolis Center
12:06AM 43.1200 -94.3611 288° West 458 527 36,300 360 Climbing Minneapolis Center
12:07AM 43.1581 -94.5278 287° West 460 529 36,800 480 Climbing Minneapolis Center
12:08AM 43.1956 -94.6897 288° West 451 519 37,300 480 Climbing Minneapolis Center
12:09AM 43.2328 -94.8492 288° West 442 509 37,800 300 Climbing Minneapolis Center
12:11AM 43.2678 -95.0092 287° West 440 506 38,000 60 Climbing Minneapolis Center
12:12AM 43.3197 -95.2347 288° West 442 509 38,000  Level Minneapolis Center
12:13AM 43.3628 -95.4317 287° West 446 513 38,000  Level Minneapolis Center
12:14AM 43.3989 -95.5956 287° West 448 516 38,000  Level Minneapolis Center
12:15AM 43.4344 -95.7600 287° West 448 516 38,000  Level Minneapolis Center
12:16AM 43.4697 -95.9247 286° West 449 517 38,000  Level Minneapolis Center
12:17AM 43.5114 -96.1203 286° West 444 511 38,000  Level Minneapolis Center
12:18AM 43.5461 -96.2836 286° West 444 511 38,000  Level Minneapolis Center
12:19AM 43.5803 -96.4456 286° West 441 507 38,000  Level Minneapolis Center
12:20AM 43.6139 -96.6103 286° West 442 509 38,000  Level Minneapolis Center
12:21AM 43.6475 -96.7722 286° West 440 506 38,000  Level Minneapolis Center
12:22AM 43.6961 -96.9242 294° West 432 497 38,000  Level Minneapolis Center
12:23AM 43.7436 -97.0767 293° West 431 496 38,000  Level Minneapolis Center
12:24AM 43.7911 -97.2278 294° West 429 494 38,000  Level Minneapolis Center
12:25AM 43.8383 -97.3800 293° West 430 495 38,000  Level Minneapolis Center
12:26AM 43.8847 -97.5319 293° West 428 493 38,000  Level Minneapolis Center
12:27AM 43.9319 -97.6842 293° West 430 495 38,000  Level Minneapolis Center
12:28AM 43.9797 -97.8356 294° West 430 495 38,000  Level Minneapolis Center
12:29AM 44.0253 -97.9881 293° West 428 493 38,000  Level Minneapolis Center
12:30AM 44.0811 -98.1728 293° West 432 497 38,000  Level Minneapolis Center
12:31AM 44.1275 -98.3258 293° West 431 496 38,000  Level Minneapolis Center
12:32AM 44.1747 -98.4794 293° West 432 497 38,000  Level Minneapolis Center
12:33AM 44.2197 -98.6347 292° West 433 498 38,000  Level Minneapolis Center
12:35AM 44.2658 -98.7922 292° West 432 497 38,000  Level Minneapolis Center
12:36AM 44.3114 -98.9467 292° West 431 496 38,000  Level Minneapolis Center
12:37AM 44.3561 -99.0989 292° West 426 490 38,000  Level Minneapolis Center
12:38AM 44.3994 -99.2514 292° West 423 487 38,000  Level Minneapolis Center
12:39AM 44.4433 -99.4044 292° West 423 487 38,000  Level Minneapolis Center
12:40AM 44.4875 -99.5569 292° West 423 487 38,000  Level Minneapolis Center
12:41AM 44.5303 -99.7103 291° West 422 486 38,000  Level Minneapolis Center
12:42AM 44.5744 -99.8661 292° West 426 490 38,000  Level Minneapolis Center
12:43AM 44.6189 -100.0211 292° West 426 490 38,000  Level Minneapolis Center
12:44AM 44.6622 -100.1775 291° West 426 490 38,000  Level Minneapolis Center
12:45AM 44.7056 -100.3364 291° West 430 495 38,000  Level Minneapolis Center
12:46AM 44.7494 -100.4919 292° West 427 491 38,000  Level Minneapolis Center
12:47AM 44.7931 -100.6500 291° West 429 494 38,000  Level Minneapolis Center
12:48AM 44.8364 -100.8081 291° West 431 496 38,000  Level Minneapolis Center
12:49AM 44.8792 -100.9672 291° West 433 498 38,000  Level Minneapolis Center
12:50AM 44.9244 -101.1253 292° West 433 498 38,000  Level Minneapolis Center
12:51AM 44.9661 -101.2822 291° West 429 494 38,000  Level Minneapolis Center
12:52AM 45.0072 -101.4369 291° West 423 487 38,000  Level Minneapolis Center
12:53AM 45.0481 -101.5917 291° West 421 484 38,000  Level Minneapolis Center
12:54AM 45.0861 -101.7475 289° West 420 483 38,000  Level Minneapolis Center
12:55AM 45.1067 -101.9119 280° West 422 486 38,000  Level Minneapolis Center
12:56AM 45.1339 -102.1086 281° West 424 488 38,000  Level Minneapolis Center
12:57AM 45.1550 -102.2719 280° West 422 486 38,000  Level Minneapolis Center
12:58AM 45.1769 -102.4356 281° West 423 487 38,000  Level Minneapolis Center
12:59AM 45.1978 -102.5986 280° West 422 486 38,000  Level Minneapolis Center
01:00AM 45.2186 -102.7622 280° West 422 486 38,000  Level Minneapolis Center
01:01AM 45.2403 -102.9256 281° West 422 486 38,000  Level Minneapolis Center
01:02AM 45.2600 -103.0897 280° West 423 487 38,000 -120 Level Minneapolis Center
01:02AM 45.2703 -103.1697 280° West 417 480 37,900  Descending Salt Lake Center
01:03AM 45.2903 -103.3369 280° West 423 487 38,000  Climbing Salt Lake Center
01:04AM 45.3106 -103.5000 280° West 423 487 37,900 -60 Descending Salt Lake Center
01:05AM 45.3294 -103.6639 279° West 422 486 37,900  Level Salt Lake Center
01:06AM 45.3489 -103.8253 280° West 419 482 38,000  Climbing Salt Lake Center
01:07AM 45.3681 -103.9908 279° West 422 486 38,000  Level Salt Lake Center
01:08AM 45.3875 -104.1583 279° West 425 489 38,000  Level Salt Lake Center
01:09AM 45.4069 -104.3283 279° West 430 495 38,000  Level Salt Lake Center
01:10AM 45.4258 -104.5031 279° West 438 504 38,000 -60 Level Salt Lake Center
01:11AM 45.4494 -104.7119 279° West 443 510 37,900  Descending Salt Lake Center
01:12AM 45.4678 -104.8842 279° West 442 509 38,000  Climbing Salt Lake Center
01:13AM 45.4867 -105.0550 279° West 440 506 38,000  Level Salt Lake Center
01:15AM 45.5053 -105.2250 279° West 437 503 38,000  Level Salt Lake Center
01:16AM 45.5233 -105.3981 279° West 440 506 38,000  Level Salt Lake Center
01:17AM 45.5408 -105.5703 278° West 439 505 38,000  Level Salt Lake Center
01:18AM 45.5572 -105.7422 278° West 439 505 38,000  Level Salt Lake Center
01:19AM 45.5756 -105.9147 279° West 440 506 38,000  Level Salt Lake Center
01:20AM 45.5917 -106.0869 278° West 440 506 38,000  Level Salt Lake Center
01:21AM 45.6089 -106.2597 278° West 440 506 38,000  Level Salt Lake Center
01:22AM 45.6244 -106.4314 277° West 438 504 38,000  Level Salt Lake Center
01:23AM 45.6406 -106.6022 278° West 436 502 38,000  Level Salt Lake Center
01:24AM 45.6539 -106.7697 277° West 433 498 38,000  Level Salt Lake Center
01:25AM 45.6669 -106.9361 276° West 429 494 38,000  Level Salt Lake Center
01:26AM 45.6836 -107.1064 278° West 428 493 38,000  Level Salt Lake Center
01:27AM 45.7022 -107.3042 278° West 430 495 38,000  Level Salt Lake Center
01:28AM 45.7167 -107.4719 277° West 432 497 38,000  Level Salt Lake Center
01:29AM 45.7308 -107.6392 277° West 429 494 38,000  Level Salt Lake Center
01:30AM 45.7458 -107.8206 277° West 425 489 38,000  Level Salt Lake Center
01:31AM 45.7592 -107.9861 277° West 425 489 38,000  Level Salt Lake Center
01:32AM 45.7725 -108.1514 277° West 428 493 38,000  Level Salt Lake Center
01:33AM 45.7856 -108.3189 276° West 423 487 38,000 -60 Level Salt Lake Center
01:34AM 45.7925 -108.4917 273° West 439 505 37,900  Descending Salt Lake Center
01:35AM 45.8075 -108.6744 277° West 455 524 38,000 -660 Climbing Salt Lake Center
01:36AM 45.8083 -108.8528 270° West 422 486 36,600 -1,920 Descending Salt Lake Center
01:37AM 45.8081 -109.0233 270° West 432 497 34,200 -2,280 Descending Salt Lake Center
01:38AM 45.8072 -109.1967 270° West 439 505 32,000 -2,340 Descending Salt Lake Center
01:39AM 45.8064 -109.3711 270° West 442 509 29,600 -2,520 Descending Salt Lake Center
01:40AM 45.8053 -109.5581 270° West 439 505 27,000 -2,460 Descending Salt Lake Center
01:41AM 45.8033 -109.7311 269° West 444 511 24,600 -2,280 Descending Salt Lake Center
01:42AM 45.8014 -109.8894 269° West 436 502 22,500 -2,460 Descending Salt Lake Center
01:43AM 45.7986 -110.0772 269° West 429 494 19,700 -2,400 Descending Salt Lake Center
01:44AM 45.7961 -110.2350 269° West 422 486 17,700 -2,220 Descending Salt Lake Center
01:45AM 45.7931 -110.3897 268° West 416 479 15,300 -2,340 Descending Salt Lake Center
01:46AM 45.7908 -110.5625 269° West 405 466 13,000 -1,500 Descending Salt Lake Center
01:47AM 45.7892 -110.6950 269° West 395 455 12,300 -600 Descending Salt Lake Center
01:48AM 45.7856 -110.8061 267° West 339 390 11,900 -240 Descending Salt Lake Center
01:49AM 45.7831 -110.9147 268° West 284 327 11,900 -780 Level Salt Lake Center
01:50AM 45.7811 -111.0078 268° West 254 292 10,400 -1,500 Descending Salt Lake Center
01:51AM 45.7786 -111.0972 268° West 237 273 8,900 -1,380 Descending Salt Lake Center
01:52AM 45.7750 -111.1761 266° West 232 267 7,700 -960 Descending Salt Lake Center
01:53AM 45.7836 -111.2628 278° West 226 260 7,000 -540 Descending Salt Lake Center
01:54AM 45.8294 -111.2847 342° North 208 239 6,700 -660 Descending Salt Lake Center
01:55AM 45.8339 -111.2319 83° East 170 196 5,700 -1,020 Descending Salt Lake Center
01:56AM 45.8003 -111.1833 135° Southeast 150 173 4,700 -1,020 Descending Salt Lake Center